Terminal Aerodrome Forecast
Issued by NWS Pueblo, CO

Home | Current Version | Previous Version | Text Only | Print | Product List | Glossary On
Versions: 1 2 3 4 5 6 7 8 9 10 11 12 13 14 15 16 17 18 19 20 21 22 23 24 25 26 27 28 29 30 31 32 33 34 35 36
073
FTUS45 KPUB 221721
TAFCOS
TAF
KCOS 221721Z 2218/2318 01010KT P6SM VCSH FEW015 BKN030
     FM222300 02012KT 4SM -RA BR OVC015
     FM230500 06006KT P6SM OVC010
     FM230900 12006KT 3SM BR OVC005
     FM231400 16007KT 3SM BR SCT005 BKN030=

USA.gov is the U.S. government's official web portal to all federal, state and local government web resources and services.